createdAt,value
2023-11-17T00:00:13.929Z,92.70
2023-11-17T00:02:41.712Z,93.20
2023-11-17T00:05:08.885Z,92.90
2023-11-17T00:07:35.690Z,92.70
2023-11-17T00:10:03.692Z,92.70
2023-11-17T00:12:30.936Z,93.10
2023-11-17T00:14:57.737Z,92.80
2023-11-17T00:17:24.625Z,93.10
2023-11-17T00:19:52.607Z,93.30
2023-11-17T00:22:19.454Z,93.30
2023-11-17T00:24:46.316Z,93.50
2023-11-17T00:27:13.045Z,93.40
2023-11-17T00:29:40.326Z,93.70
2023-11-17T00:32:07.945Z,93.80
2023-11-17T00:34:35.180Z,93.60
2023-11-17T00:37:08.364Z,93.70
2023-11-17T00:39:36.346Z,93.90
2023-11-17T00:42:04.129Z,94.00
2023-11-17T00:44:34.366Z,93.80
2023-11-17T00:47:01.198Z,93.70
2023-11-17T00:49:28.122Z,93.40
2023-11-17T00:51:55.556Z,93.20
2023-11-17T00:54:27.672Z,93.70
2023-11-17T00:56:57.699Z,93.40
2023-11-17T00:59:24.537Z,93.20
2023-11-17T01:01:51.571Z,93.80
2023-11-17T01:04:18.762Z,93.60
2023-11-17T01:06:45.727Z,93.50
2023-11-17T01:09:13.775Z,93.50
2023-11-17T01:11:40.810Z,93.90
2023-11-17T01:14:09.682Z,93.40
2023-11-17T01:16:36.948Z,93.30
2023-11-17T01:19:04.267Z,93.50
2023-11-17T01:21:31.940Z,93.40
2023-11-17T01:24:01.017Z,92.90
2023-11-17T01:26:27.805Z,92.90
2023-11-17T01:28:54.715Z,92.90
2023-11-17T01:31:22.478Z,93.00
2023-11-17T01:33:49.838Z,93.00
2023-11-17T01:36:18.952Z,93.00
2023-11-17T01:38:52.792Z,92.70
2023-11-17T01:41:21.778Z,92.80
2023-11-17T01:43:50.221Z,93.40
2023-11-17T01:46:21.941Z,93.00
2023-11-17T01:48:48.974Z,92.80
2023-11-17T01:51:15.944Z,92.50
2023-11-17T01:53:43.196Z,92.60
2023-11-17T01:56:10.065Z,93.00
2023-11-17T01:58:36.945Z,92.90
2023-11-17T02:01:05.396Z,92.60
2023-11-17T02:03:32.394Z,92.40
2023-11-17T02:06:06.453Z,92.60
2023-11-17T02:08:42.465Z,92.50
2023-11-17T02:11:09.668Z,92.60
2023-11-17T02:13:59.673Z,92.20
2023-11-17T02:16:27.005Z,92.10
2023-11-17T02:18:55.960Z,92.40
2023-11-17T02:21:29.411Z,92.50
2023-11-17T02:23:57.230Z,92.20
2023-11-17T02:26:49.695Z,92.10
2023-11-17T02:29:38.941Z,92.10
2023-11-17T02:32:06.567Z,91.80
2023-11-17T02:34:33.439Z,92.00
2023-11-17T02:37:00.504Z,92.10
2023-11-17T02:39:27.796Z,91.90
2023-11-17T02:41:58.493Z,92.10
2023-11-17T02:44:30.386Z,92.20
2023-11-17T02:47:01.174Z,92.20
2023-11-17T02:49:44.053Z,92.40
2023-11-17T02:52:17.867Z,92.50
2023-11-17T02:54:45.648Z,92.40
2023-11-17T02:57:15.570Z,92.30
2023-11-17T02:59:43.289Z,92.80
2023-11-17T03:02:10.613Z,92.60
2023-11-17T03:04:38.500Z,92.80
2023-11-17T03:07:05.345Z,92.70
2023-11-17T03:09:32.511Z,92.80
2023-11-17T03:12:03.476Z,92.30
2023-11-17T03:14:30.361Z,92.10
2023-11-17T03:17:00.257Z,92.00
2023-11-17T03:19:27.635Z,92.00
2023-11-17T03:21:58.096Z,91.80
2023-11-17T03:24:25.881Z,91.50
2023-11-17T03:26:56.550Z,91.40
2023-11-17T03:29:26.699Z,91.30
2023-11-17T03:31:55.175Z,91.30
2023-11-17T03:34:32.109Z,90.60
2023-11-17T03:36:59.047Z,90.40
2023-11-17T03:39:26.328Z,90.10
2023-11-17T03:41:56.153Z,89.50
2023-11-17T03:44:25.843Z,90.10
2023-11-17T03:46:53.060Z,90.10
2023-11-17T03:49:19.947Z,90.30
2023-11-17T03:51:47.788Z,89.70
2023-11-17T03:54:14.573Z,89.70
2023-11-17T03:56:42.269Z,89.20
2023-11-17T03:59:14.488Z,89.50
2023-11-17T04:01:42.117Z,89.80
2023-11-17T04:04:09.099Z,89.80
2023-11-17T04:06:35.931Z,89.30
2023-11-17T04:09:05.715Z,89.10
2023-11-17T04:11:33.099Z,89.50
2023-11-17T04:13:59.949Z,89.10
2023-11-17T04:16:27.023Z,89.70
2023-11-17T04:18:55.804Z,89.10
2023-11-17T04:21:23.241Z,89.30
2023-11-17T04:23:50.445Z,89.70
2023-11-17T04:26:17.345Z,89.50
2023-11-17T04:28:45.486Z,89.50
2023-11-17T04:31:12.293Z,89.20
2023-11-17T04:33:39.589Z,89.40
2023-11-17T04:36:06.479Z,89.30
2023-11-17T04:38:33.311Z,89.00
2023-11-17T04:41:00.166Z,89.10
2023-11-17T04:43:27.085Z,89.10
2023-11-17T04:45:55.573Z,89.40
2023-11-17T04:48:22.411Z,89.50
2023-11-17T04:50:49.183Z,89.50
2023-11-17T04:53:16.029Z,89.40
2023-11-17T04:55:46.971Z,89.30
2023-11-17T04:58:13.744Z,89.00
2023-11-17T05:00:40.681Z,88.30
2023-11-17T05:03:07.426Z,87.60
2023-11-17T05:05:35.102Z,86.70
2023-11-17T05:08:01.851Z,86.80
2023-11-17T05:10:28.606Z,86.80
2023-11-17T05:12:55.358Z,87.00
2023-11-17T05:15:23.703Z,86.00
2023-11-17T05:17:50.528Z,84.90
2023-11-17T05:20:18.295Z,84.90
2023-11-17T05:22:46.339Z,84.20
2023-11-17T05:25:13.975Z,84.20
2023-11-17T05:27:42.047Z,83.90
2023-11-17T05:30:09.430Z,83.90
2023-11-17T05:32:36.725Z,84.00
2023-11-17T05:35:07.200Z,83.40
2023-11-17T05:37:34.363Z,83.40
2023-11-17T05:40:01.360Z,83.60
2023-11-17T05:42:31.000Z,83.40
2023-11-17T05:44:57.882Z,83.70
2023-11-17T05:47:24.666Z,83.80
2023-11-17T05:49:53.452Z,83.70
2023-11-17T05:52:20.370Z,83.60
2023-11-17T05:54:47.636Z,83.90
2023-11-17T05:57:14.977Z,83.70
2023-11-17T05:59:43.500Z,83.60
2023-11-17T06:02:10.442Z,83.70
2023-11-17T06:04:37.665Z,83.90
2023-11-17T06:07:05.026Z,84.10
2023-11-17T06:09:31.768Z,84.20
2023-11-17T06:11:58.688Z,84.20
2023-11-17T06:14:28.917Z,84.40
2023-11-17T06:16:55.777Z,84.20
2023-11-17T06:19:23.586Z,84.30
2023-11-17T06:21:51.128Z,84.20
2023-11-17T06:24:17.974Z,83.70
2023-11-17T06:26:46.463Z,83.30
2023-11-17T06:29:13.367Z,83.10
2023-11-17T06:31:42.699Z,83.40
2023-11-17T06:34:12.128Z,83.00
2023-11-17T06:36:42.418Z,82.90
2023-11-17T06:39:15.550Z,82.40
2023-11-17T06:41:48.346Z,81.80
2023-11-17T06:44:16.292Z,81.30
2023-11-17T06:46:43.486Z,81.70
2023-11-17T06:51:52.475Z,80.90
2023-11-17T06:54:19.732Z,80.90
2023-11-17T06:56:47.738Z,80.90
2023-11-17T06:59:18.439Z,81.40
2023-11-17T07:01:45.902Z,80.90
2023-11-17T07:04:13.852Z,80.90
2023-11-17T07:06:41.433Z,80.60
2023-11-17T07:09:17.710Z,81.10
2023-11-17T07:11:45.414Z,80.80
2023-11-17T07:14:13.173Z,81.00
2023-11-17T07:16:46.021Z,80.80
2023-11-17T07:19:17.795Z,81.00
2023-11-17T07:21:48.725Z,81.40
2023-11-17T07:24:20.739Z,80.70
2023-11-17T07:26:48.102Z,80.00
2023-11-17T07:29:15.605Z,79.70
2023-11-17T07:31:52.108Z,80.60
2023-11-17T07:34:20.035Z,79.90
2023-11-17T07:36:48.685Z,80.40
2023-11-17T07:39:20.606Z,79.40
2023-11-17T07:41:48.282Z,79.50
2023-11-17T07:44:15.523Z,79.60
2023-11-17T07:46:46.009Z,79.20
2023-11-17T07:49:13.607Z,79.20
2023-11-17T07:51:40.570Z,79.20
2023-11-17T07:54:12.730Z,77.70
2023-11-17T07:56:41.474Z,78.60
2023-11-17T07:59:12.056Z,78.30
2023-11-17T08:01:40.641Z,78.70
2023-11-17T08:04:09.740Z,79.00
2023-11-17T08:06:37.139Z,78.60
2023-11-17T08:09:05.179Z,77.90
2023-11-17T08:11:32.023Z,78.20
2023-11-17T08:13:59.011Z,78.60
2023-11-17T08:16:26.154Z,79.10
2023-11-17T08:18:53.001Z,78.60
2023-11-17T08:21:19.755Z,78.70
2023-11-17T08:23:47.445Z,79.00
2023-11-17T08:26:15.850Z,79.50
2023-11-17T08:28:42.688Z,79.50
2023-11-17T08:31:10.845Z,79.20
2023-11-17T08:33:37.685Z,79.60
2023-11-17T08:36:04.617Z,79.60
2023-11-17T08:38:31.399Z,79.90
2023-11-17T08:40:58.180Z,79.60
2023-11-17T08:43:28.447Z,79.80
2023-11-17T08:45:55.751Z,80.30
2023-11-17T08:48:22.556Z,80.10
2023-11-17T08:50:49.408Z,80.00
2023-11-17T08:53:17.745Z,80.10
2023-11-17T08:55:45.793Z,80.30
2023-11-17T08:58:12.978Z,80.40
2023-11-17T09:00:42.274Z,80.20
2023-11-17T09:03:10.690Z,79.80
2023-11-17T09:05:37.666Z,79.90
2023-11-17T09:08:05.495Z,80.10
2023-11-17T09:10:32.581Z,80.70
2023-11-17T09:12:59.557Z,80.40
2023-11-17T09:15:26.836Z,80.20
2023-11-17T09:17:54.548Z,79.60
2023-11-17T09:20:22.844Z,79.90
2023-11-17T09:22:51.951Z,80.30
2023-11-17T09:25:19.943Z,80.60
2023-11-17T09:27:49.772Z,80.10
2023-11-17T09:30:16.651Z,80.30
2023-11-17T09:32:50.482Z,80.10
2023-11-17T09:35:17.742Z,79.90
2023-11-17T09:37:58.177Z,80.10
2023-11-17T09:40:25.490Z,80.10
2023-11-17T09:42:53.563Z,79.90
2023-11-17T09:45:21.227Z,79.30
2023-11-17T09:47:59.851Z,80.40
2023-11-17T09:50:30.897Z,79.60
2023-11-17T09:52:59.307Z,80.00
2023-11-17T09:55:29.870Z,79.60
2023-11-17T09:57:59.028Z,79.80
2023-11-17T10:00:28.880Z,78.90
2023-11-17T10:02:57.599Z,79.10
2023-11-17T10:05:25.382Z,79.10
2023-11-17T10:07:56.522Z,78.40
2023-11-17T10:10:24.073Z,78.70
2023-11-17T10:12:52.229Z,78.40
2023-11-17T10:15:25.658Z,78.60
2023-11-17T10:18:00.714Z,78.80
2023-11-17T10:20:28.497Z,78.90
2023-11-17T10:22:55.810Z,79.30
2023-11-17T10:25:25.550Z,79.40
2023-11-17T10:27:55.535Z,78.80
2023-11-17T10:30:27.015Z,78.80
2023-11-17T10:33:12.850Z,79.00
2023-11-17T10:35:44.753Z,79.10
2023-11-17T10:38:15.722Z,77.90
2023-11-17T10:40:42.892Z,78.00
2023-11-17T10:43:11.534Z,78.40
2023-11-17T10:45:39.369Z,78.00
2023-11-17T10:48:13.975Z,78.20
2023-11-17T10:50:45.060Z,78.10
2023-11-17T10:53:22.541Z,78.50
2023-11-17T10:55:49.895Z,77.90
2023-11-17T10:58:17.185Z,78.20
2023-11-17T11:00:45.024Z,78.30
2023-11-17T11:03:14.608Z,78.40
2023-11-17T11:05:42.618Z,77.90
2023-11-17T11:08:19.854Z,77.80
2023-11-17T11:10:54.918Z,78.30
2023-11-17T11:13:31.208Z,78.60
2023-11-17T11:16:07.701Z,78.20
2023-11-17T11:18:36.540Z,78.00
2023-11-17T11:21:07.418Z,77.70
2023-11-17T11:23:35.021Z,78.80
2023-11-17T11:26:04.314Z,78.20
2023-11-17T11:28:32.469Z,78.10
2023-11-17T11:31:01.256Z,78.20
2023-11-17T11:33:31.691Z,78.40
2023-11-17T11:36:01.906Z,78.30
2023-11-17T11:38:29.610Z,78.20
2023-11-17T11:40:56.945Z,78.40
2023-11-17T11:43:24.145Z,78.60
2023-11-17T11:45:51.389Z,78.00
2023-11-17T11:48:22.088Z,78.50
2023-11-17T11:50:56.246Z,78.10
2023-11-17T11:53:43.368Z,78.40
2023-11-17T11:56:15.450Z,78.30
2023-11-17T11:58:45.565Z,78.20
2023-11-17T12:01:12.957Z,79.00
2023-11-17T12:03:42.655Z,78.30
2023-11-17T12:06:09.594Z,78.00
2023-11-17T12:08:36.348Z,78.20
2023-11-17T12:11:11.547Z,78.70
2023-11-17T12:13:43.173Z,78.60
2023-11-17T12:16:15.694Z,78.10
2023-11-17T12:18:47.237Z,78.20
2023-11-17T12:21:18.652Z,79.00
2023-11-17T12:23:46.533Z,78.40
2023-11-17T12:26:16.833Z,78.60
2023-11-17T12:28:46.062Z,79.30
2023-11-17T12:31:14.967Z,78.60
2023-11-17T12:33:42.796Z,78.30
2023-11-17T12:36:10.770Z,78.40
2023-11-17T12:38:37.563Z,78.20
2023-11-17T12:41:04.649Z,78.30
2023-11-17T12:43:34.554Z,78.00
2023-11-17T12:46:02.023Z,78.00
2023-11-17T12:48:29.042Z,78.60
2023-11-17T12:50:59.377Z,79.00
2023-11-17T12:53:27.869Z,77.60
2023-11-17T12:58:51.625Z,78.90
2023-11-17T13:01:19.961Z,78.40
2023-11-17T13:03:51.012Z,78.70
2023-11-17T13:06:19.724Z,78.50
2023-11-17T13:08:48.286Z,78.40
2023-11-17T13:11:16.155Z,78.80
2023-11-17T13:13:44.375Z,78.20
2023-11-17T13:16:12.013Z,78.90
2023-11-17T13:18:41.865Z,78.90
2023-11-17T13:21:09.949Z,79.10
2023-11-17T13:23:38.275Z,78.00
2023-11-17T13:26:09.717Z,78.60
2023-11-17T13:28:40.142Z,78.50
2023-11-17T13:31:18.158Z,78.40
2023-11-17T13:33:45.290Z,78.10
2023-11-17T13:36:12.192Z,78.60
2023-11-17T13:38:57.832Z,78.40
2023-11-17T13:41:28.584Z,78.10
2023-11-17T13:43:58.539Z,78.40
2023-11-17T13:46:30.547Z,78.80
2023-11-17T13:49:04.847Z,78.70
2023-11-17T13:51:36.473Z,78.80
2023-11-17T13:54:03.889Z,78.20
2023-11-17T13:56:31.194Z,79.00
2023-11-17T13:58:58.345Z,78.20
2023-11-17T14:01:27.831Z,79.10
2023-11-17T14:03:54.986Z,79.30
2023-11-17T14:06:21.876Z,78.40
2023-11-17T14:08:50.834Z,78.10
2023-11-17T14:11:18.914Z,78.10
2023-11-17T14:13:45.870Z,78.30
2023-11-17T14:16:12.698Z,78.70
2023-11-17T14:18:42.724Z,78.40
2023-11-17T14:21:13.575Z,78.80
2023-11-17T14:23:42.852Z,78.40
2023-11-17T14:26:10.082Z,78.30
2023-11-17T14:28:37.829Z,78.20
2023-11-17T14:31:09.153Z,78.40
2023-11-17T14:33:36.664Z,78.70
2023-11-17T14:36:06.153Z,79.00
2023-11-17T14:38:33.199Z,78.30
2023-11-17T14:41:00.713Z,78.50
2023-11-17T14:43:28.584Z,78.60
2023-11-17T14:45:55.723Z,78.20
2023-11-17T14:48:22.874Z,78.10
2023-11-17T14:50:49.886Z,78.40
2023-11-17T14:53:16.710Z,78.10
2023-11-17T14:55:43.634Z,78.50
2023-11-17T14:58:12.070Z,78.80
2023-11-17T15:00:45.323Z,78.70
2023-11-17T15:03:12.832Z,78.80
2023-11-17T15:05:42.494Z,79.60
2023-11-17T15:08:11.302Z,78.70
2023-11-17T15:10:40.725Z,78.40
2023-11-17T15:13:08.318Z,78.80
2023-11-17T15:15:35.187Z,78.40
2023-11-17T15:18:11.815Z,78.40
2023-11-17T15:20:38.605Z,78.20
2023-11-17T15:23:08.234Z,79.50
2023-11-17T15:25:38.019Z,79.10
2023-11-17T15:28:14.235Z,78.90
2023-11-17T15:30:47.350Z,78.80
2023-11-17T15:33:14.620Z,78.90
2023-11-17T15:35:41.536Z,78.50
2023-11-17T15:38:08.607Z,78.80
2023-11-17T15:40:37.568Z,78.80
2023-11-17T15:43:06.082Z,78.80
2023-11-17T15:45:33.697Z,79.10
2023-11-17T15:48:02.343Z,78.80
2023-11-17T15:50:32.363Z,78.80
2023-11-17T15:52:59.584Z,79.40
2023-11-17T15:55:26.832Z,79.00
2023-11-17T15:57:53.770Z,79.00
2023-11-17T16:00:25.016Z,78.80
2023-11-17T16:02:54.161Z,79.20
2023-11-17T16:05:22.789Z,79.10
2023-11-17T16:07:54.449Z,79.20
2023-11-17T16:10:24.203Z,79.40
2023-11-17T16:12:51.731Z,79.30
2023-11-17T16:15:19.900Z,79.10
2023-11-17T16:17:47.459Z,79.50
2023-11-17T16:20:17.570Z,79.90
2023-11-17T16:22:45.798Z,79.80
2023-11-17T16:25:16.285Z,79.90
2023-11-17T16:27:44.620Z,80.10
2023-11-17T16:30:15.405Z,80.00
2023-11-17T16:32:43.031Z,80.30
2023-11-17T16:35:13.020Z,80.30
2023-11-17T16:37:40.452Z,80.30
2023-11-17T16:40:13.106Z,81.00
2023-11-17T16:42:41.694Z,80.60
2023-11-17T16:45:09.708Z,80.90
2023-11-17T16:47:36.713Z,80.80
2023-11-17T16:50:07.496Z,81.20
2023-11-17T16:52:34.527Z,81.50
2023-11-17T16:55:03.568Z,81.30
2023-11-17T16:57:30.516Z,81.70
2023-11-17T16:59:57.335Z,81.80
2023-11-17T17:02:25.830Z,81.40
2023-11-17T17:04:52.945Z,81.60
2023-11-17T17:07:20.190Z,81.70
2023-11-17T17:09:49.617Z,81.70
2023-11-17T17:12:18.003Z,81.70
2023-11-17T17:14:44.952Z,82.00
2023-11-17T17:17:15.342Z,82.40
2023-11-17T17:19:42.504Z,82.10
2023-11-17T17:22:09.607Z,82.10
2023-11-17T17:24:37.986Z,82.20
2023-11-17T17:27:08.341Z,82.20
2023-11-17T17:29:36.155Z,81.80
2023-11-17T17:32:04.872Z,82.10
2023-11-17T17:34:31.885Z,81.60
2023-11-17T17:36:58.696Z,81.30
2023-11-17T17:39:26.533Z,81.60
2023-11-17T17:41:53.841Z,81.80
2023-11-17T17:44:23.473Z,81.50
2023-11-17T17:46:52.374Z,81.70
2023-11-17T17:49:19.287Z,81.40
2023-11-17T17:51:46.445Z,81.30
2023-11-17T17:54:15.662Z,81.60
2023-11-17T17:56:42.630Z,81.30
2023-11-17T17:59:10.657Z,80.70
2023-11-17T18:01:39.216Z,81.10
2023-11-17T18:04:09.715Z,81.10
2023-11-17T18:06:37.145Z,81.00
2023-11-17T18:09:04.359Z,80.50
2023-11-17T18:11:31.261Z,80.80
2023-11-17T18:13:59.567Z,80.90
2023-11-17T18:16:26.592Z,80.90
2023-11-17T18:18:53.494Z,81.00
2023-11-17T18:21:20.239Z,81.00
2023-11-17T18:23:47.268Z,80.70
2023-11-17T18:26:25.229Z,80.20
2023-11-17T18:28:56.700Z,80.50
2023-11-17T18:31:23.680Z,81.00
2023-11-17T18:33:50.871Z,80.50
2023-11-17T18:36:18.120Z,80.50
2023-11-17T18:38:45.627Z,80.20
2023-11-17T18:41:12.460Z,81.00
2023-11-17T18:43:40.236Z,80.60
2023-11-17T18:46:11.094Z,80.90
2023-11-17T18:48:41.323Z,81.00
2023-11-17T18:51:08.479Z,80.60
2023-11-17T18:53:36.005Z,80.60
2023-11-17T18:56:04.377Z,79.90
2023-11-17T18:58:31.311Z,79.90
2023-11-17T19:00:59.803Z,80.30
2023-11-17T19:03:26.798Z,79.80
2023-11-17T19:05:53.749Z,80.20
2023-11-17T19:08:20.509Z,80.40
2023-11-17T19:10:47.600Z,80.00
2023-11-17T19:13:14.560Z,80.00
2023-11-17T19:15:42.127Z,80.10
2023-11-17T19:18:12.018Z,80.00
2023-11-17T19:20:39.347Z,80.20
2023-11-17T19:23:06.429Z,79.90
2023-11-17T19:25:34.693Z,80.10
2023-11-17T19:28:01.576Z,79.60
2023-11-17T19:30:28.385Z,79.20
2023-11-17T19:32:57.228Z,79.30
2023-11-17T19:35:24.750Z,79.50
2023-11-17T19:37:52.114Z,80.00
2023-11-17T19:40:19.138Z,80.10
2023-11-17T19:42:46.045Z,79.40
2023-11-17T19:45:21.735Z,79.70
2023-11-17T19:47:50.724Z,79.30
2023-11-17T19:50:18.818Z,79.80
2023-11-17T19:52:48.390Z,79.70
2023-11-17T19:55:16.470Z,79.90
2023-11-17T19:57:44.003Z,78.90
2023-11-17T20:00:13.512Z,79.40
2023-11-17T20:02:43.628Z,79.50
2023-11-17T20:05:11.620Z,79.80
2023-11-17T20:07:39.440Z,79.80
2023-11-17T20:10:09.663Z,79.70
2023-11-17T20:12:39.449Z,79.70
2023-11-17T20:15:10.381Z,80.10
2023-11-17T20:17:48.584Z,79.90
2023-11-17T20:20:21.424Z,79.80
2023-11-17T20:22:48.390Z,80.20
2023-11-17T20:25:15.540Z,79.50
2023-11-17T20:27:46.002Z,79.80
2023-11-17T20:30:21.958Z,80.10
2023-11-17T20:32:51.113Z,80.30
2023-11-17T20:35:18.552Z,80.60
2023-11-17T20:37:45.507Z,80.30
2023-11-17T20:40:15.246Z,80.30
2023-11-17T20:42:46.306Z,80.30
2023-11-17T20:45:16.582Z,80.30
2023-11-17T20:47:44.427Z,80.60
2023-11-17T20:50:17.109Z,80.50
2023-11-17T20:52:46.392Z,80.80
